createdAt,value
2023-02-24T00:02:01.429Z,4.68
2023-02-24T00:04:34.916Z,3.55
2023-02-24T00:07:03.044Z,2.35
2023-02-24T00:09:31.673Z,4.15
2023-02-24T00:12:04.756Z,1.95
2023-02-24T00:14:35.091Z,2.85
2023-02-24T00:17:02.805Z,2.90
2023-02-24T00:19:34.292Z,3.60
2023-02-24T00:22:03.275Z,2.72
2023-02-24T00:24:31.581Z,7.32
2023-02-24T00:27:01.347Z,10.40
2023-02-24T00:29:30.261Z,9.15
2023-02-24T00:32:00.325Z,7.28
2023-02-24T00:34:31.357Z,5.15
2023-02-24T00:36:59.724Z,4.95
2023-02-24T00:39:32.995Z,6.97
2023-02-24T00:42:06.417Z,5.28
2023-02-24T00:44:45.034Z,6.95
2023-02-24T00:47:13.956Z,5.18
2023-02-24T00:49:43.366Z,4.90
2023-02-24T00:52:19.398Z,9.02
2023-02-24T00:54:48.872Z,6.22
2023-02-24T00:57:18.552Z,5.38
2023-02-24T00:59:51.310Z,8.73
2023-02-24T01:02:19.006Z,9.55
2023-02-24T01:04:46.744Z,9.18
2023-02-24T01:07:14.794Z,7.95
2023-02-24T01:09:44.246Z,9.18
2023-02-24T01:12:38.566Z,8.38
2023-02-24T01:15:11.277Z,3.95
2023-02-24T01:17:40.135Z,8.25
2023-02-24T01:20:16.611Z,7.07
2023-02-24T01:22:53.489Z,6.18
2023-02-24T01:25:21.731Z,7.30
2023-02-24T01:27:49.205Z,5.65
2023-02-24T01:30:18.318Z,13.80
2023-02-24T01:32:47.312Z,4.93
2023-02-24T01:35:15.263Z,9.00
2023-02-24T01:37:43.198Z,9.68
2023-02-24T01:40:18.695Z,9.55
2023-02-24T01:42:47.747Z,16.73
2023-02-24T01:45:19.747Z,11.30
2023-02-24T01:47:48.619Z,10.20
2023-02-24T01:50:21.637Z,15.30
2023-02-24T01:52:51.470Z,13.40
2023-02-24T01:55:29.262Z,16.30
2023-02-24T01:57:58.795Z,19.17
2023-02-24T02:00:52.596Z,12.80
2023-02-24T02:03:30.554Z,9.60
2023-02-24T02:06:11.610Z,16.25
2023-02-24T02:08:42.206Z,15.75
2023-02-24T02:11:23.056Z,15.40
2023-02-24T02:13:53.529Z,13.93
2023-02-24T02:16:21.143Z,12.57
2023-02-24T02:19:02.453Z,16.00
2023-02-24T02:21:32.966Z,15.50
2023-02-24T02:24:23.162Z,14.38
2023-02-24T02:27:19.904Z,22.73
2023-02-24T02:30:06.376Z,14.95
2023-02-24T02:33:07.102Z,20.65
2023-02-24T02:35:49.591Z,23.35
2023-02-24T02:38:51.582Z,25.50
2023-02-24T02:41:25.228Z,19.17
2023-02-24T02:44:15.828Z,27.55
2023-02-24T02:47:14.005Z,16.42
2023-02-24T02:49:47.929Z,23.20
2023-02-24T02:52:24.772Z,21.15
2023-02-24T02:55:01.246Z,16.95
2023-02-24T02:57:31.135Z,28.98
2023-02-24T03:00:15.060Z,19.73
2023-02-24T03:02:48.421Z,32.15
2023-02-24T03:05:20.386Z,24.42
2023-02-24T03:07:54.771Z,20.88
2023-02-24T03:10:33.929Z,25.17
2023-02-24T03:13:06.179Z,22.45
2023-02-24T03:15:36.015Z,19.77
2023-02-24T03:18:10.545Z,25.88
2023-02-24T03:20:51.895Z,29.35
2023-02-24T03:23:27.295Z,22.60
2023-02-24T03:26:01.243Z,22.30
2023-02-24T03:28:37.480Z,25.60
2023-02-24T03:31:14.207Z,17.75
2023-02-24T03:33:51.494Z,27.80
2023-02-24T03:36:20.616Z,27.85
2023-02-24T03:38:50.489Z,21.95
2023-02-24T03:41:19.326Z,18.35
2023-02-24T03:43:50.179Z,24.20
2023-02-24T03:46:18.286Z,25.73
2023-02-24T03:48:58.688Z,16.65
2023-02-24T03:51:27.867Z,28.38
2023-02-24T03:54:32.779Z,25.65
2023-02-24T03:57:12.977Z,26.35
2023-02-24T04:00:25.371Z,16.08
2023-02-24T04:03:05.743Z,33.55
2023-02-24T04:05:47.662Z,23.77
2023-02-24T04:08:17.653Z,21.98
2023-02-24T04:11:05.537Z,24.90
2023-02-24T04:13:39.363Z,17.13
2023-02-24T04:16:36.512Z,16.77
2023-02-24T04:19:14.126Z,22.40
2023-02-24T04:21:45.711Z,20.92
2023-02-24T04:26:50.986Z,15.88
2023-02-24T04:29:23.822Z,28.67
2023-02-24T04:31:58.462Z,25.85
2023-02-24T04:34:26.494Z,27.35
2023-02-24T04:36:54.066Z,24.85
2023-02-24T04:39:23.549Z,23.30
2023-02-24T04:41:54.817Z,23.90
2023-02-24T04:44:22.878Z,25.92
2023-02-24T04:46:51.015Z,24.70
2023-02-24T04:49:19.798Z,24.60
2023-02-24T04:51:47.361Z,35.85
2023-02-24T04:54:17.736Z,24.63
2023-02-24T04:56:50.942Z,25.13
2023-02-24T04:59:19.662Z,22.20
2023-02-24T05:01:47.145Z,23.20
2023-02-24T05:04:14.984Z,22.95
2023-02-24T05:06:44.186Z,30.35
2023-02-24T05:09:19.872Z,31.33
2023-02-24T05:11:49.690Z,25.90
2023-02-24T05:14:21.025Z,32.45
2023-02-24T05:16:49.468Z,23.60
2023-02-24T05:19:37.354Z,25.80
2023-02-24T05:22:07.101Z,22.95
2023-02-24T05:24:34.786Z,27.88
2023-02-24T05:27:03.928Z,33.08
2023-02-24T05:29:34.665Z,24.40
2023-02-24T05:32:04.231Z,33.50
2023-02-24T05:34:33.287Z,24.35
2023-02-24T05:37:04.493Z,20.73
2023-02-24T05:39:31.936Z,21.63
2023-02-24T05:42:05.569Z,26.42
2023-02-24T05:44:33.220Z,21.48
2023-02-24T05:47:00.808Z,20.45
2023-02-24T05:49:33.166Z,15.68
2023-02-24T05:52:07.446Z,30.13
2023-02-24T05:54:38.619Z,28.58
2023-02-24T05:57:19.697Z,24.33
2023-02-24T05:59:53.244Z,23.00
2023-02-24T06:02:27.471Z,18.10
2023-02-24T06:04:55.802Z,20.35
2023-02-24T06:07:27.656Z,24.63
2023-02-24T06:09:57.906Z,28.63
2023-02-24T06:12:34.696Z,20.10
2023-02-24T06:15:07.774Z,14.85
2023-02-24T06:17:35.659Z,23.88
2023-02-24T06:20:13.631Z,18.98
2023-02-24T06:22:42.598Z,20.75
2023-02-24T06:25:12.033Z,14.85
2023-02-24T06:27:39.558Z,19.92
2023-02-24T06:30:10.426Z,16.10
2023-02-24T06:32:38.249Z,25.52
2023-02-24T06:35:06.131Z,14.65
2023-02-24T06:37:35.863Z,14.43
2023-02-24T06:40:09.061Z,8.48
2023-02-24T06:42:36.699Z,10.95
2023-02-24T06:45:07.007Z,17.55
2023-02-24T06:47:35.451Z,13.38
2023-02-24T06:50:06.563Z,12.90
2023-02-24T06:52:34.308Z,10.23
2023-02-24T06:55:04.734Z,10.98
2023-02-24T06:57:35.802Z,10.38
2023-02-24T07:00:20.794Z,11.73
2023-02-24T07:02:48.380Z,21.00
2023-02-24T07:05:17.184Z,12.43
2023-02-24T07:07:46.063Z,7.70
2023-02-24T07:10:13.667Z,13.40
2023-02-24T07:12:41.369Z,10.70
2023-02-24T07:15:09.827Z,21.08
2023-02-24T07:17:37.351Z,13.82
2023-02-24T07:20:12.246Z,14.23
2023-02-24T07:22:39.842Z,13.53
2023-02-24T07:25:07.554Z,10.38
2023-02-24T07:27:36.742Z,21.30
2023-02-24T07:30:06.508Z,15.60
2023-02-24T07:32:34.092Z,14.95
2023-02-24T07:35:01.600Z,13.23
2023-02-24T07:37:31.754Z,13.85
2023-02-24T07:39:59.710Z,15.80
2023-02-24T07:42:30.617Z,13.52
2023-02-24T07:44:58.226Z,10.10
2023-02-24T07:47:26.602Z,11.88
2023-02-24T07:49:55.437Z,12.88
2023-02-24T07:52:22.940Z,16.33
2023-02-24T07:54:50.406Z,11.85
2023-02-24T07:57:18.996Z,12.27
2023-02-24T07:59:47.647Z,11.43
2023-02-24T08:02:16.210Z,11.68
2023-02-24T08:04:50.105Z,10.52
2023-02-24T08:07:30.884Z,11.40
2023-02-24T08:10:13.875Z,12.27
2023-02-24T08:12:43.066Z,15.25
2023-02-24T08:15:17.483Z,15.90
2023-02-24T08:17:47.501Z,11.32
2023-02-24T08:20:15.693Z,9.90
2023-02-24T08:22:46.973Z,7.55
2023-02-24T08:25:19.373Z,8.02
2023-02-24T08:28:07.775Z,9.32
2023-02-24T08:30:48.533Z,4.38
2023-02-24T08:33:23.237Z,8.80
2023-02-24T08:36:01.144Z,9.75
2023-02-24T08:38:40.116Z,10.27
2023-02-24T08:41:21.070Z,8.13
2023-02-24T08:43:49.834Z,8.07
2023-02-24T08:46:26.162Z,7.82
2023-02-24T08:48:56.789Z,9.57
2023-02-24T08:51:24.494Z,6.57
2023-02-24T08:53:55.054Z,5.20
2023-02-24T08:56:28.417Z,3.78
2023-02-24T08:59:05.890Z,9.00
2023-02-24T09:01:39.287Z,10.27
2023-02-24T09:04:12.494Z,6.18
2023-02-24T09:06:44.848Z,6.65
2023-02-24T09:09:18.804Z,6.35
2023-02-24T09:11:58.120Z,8.10
2023-02-24T09:14:28.794Z,7.55
2023-02-24T09:17:02.202Z,8.70
2023-02-24T09:20:18.262Z,7.13
2023-02-24T09:23:06.085Z,9.10
2023-02-24T09:25:44.821Z,9.50
2023-02-24T09:28:21.893Z,10.98
2023-02-24T09:30:58.722Z,9.82
2023-02-24T09:33:39.498Z,5.13
2023-02-24T09:36:10.444Z,6.30
2023-02-24T09:39:01.839Z,7.75
2023-02-24T09:41:56.160Z,7.90
2023-02-24T09:44:28.902Z,7.03
2023-02-24T09:47:08.970Z,7.25
2023-02-24T09:49:56.741Z,6.10
2023-02-24T09:52:43.210Z,9.48
2023-02-24T09:58:16.318Z,8.75
2023-02-24T10:01:22.628Z,7.07
2023-02-24T10:03:53.441Z,6.22
2023-02-24T10:06:26.922Z,6.82
2023-02-24T10:08:59.565Z,3.83
2023-02-24T10:11:35.744Z,4.03
2023-02-24T10:14:06.941Z,6.35
2023-02-24T10:16:43.544Z,6.30
2023-02-24T10:19:27.010Z,8.15
2023-02-24T10:22:27.634Z,4.50
2023-02-24T10:25:10.995Z,7.03
2023-02-24T10:27:53.139Z,5.57
2023-02-24T10:30:48.621Z,5.03
2023-02-24T10:33:18.256Z,6.82
2023-02-24T10:35:45.815Z,8.70
2023-02-24T10:38:14.032Z,12.20
2023-02-24T10:40:56.765Z,6.60
2023-02-24T10:43:30.489Z,8.73
2023-02-24T10:46:07.216Z,5.78
2023-02-24T10:48:42.490Z,11.82
2023-02-24T10:51:20.610Z,4.90
2023-02-24T10:54:09.924Z,10.45
2023-02-24T10:56:55.225Z,9.15
2023-02-24T10:59:48.325Z,7.60
2023-02-24T11:02:29.905Z,7.57
2023-02-24T11:05:00.106Z,6.93
2023-02-24T11:07:43.958Z,6.82
2023-02-24T11:10:32.570Z,5.65
2023-02-24T11:13:20.194Z,3.45
2023-02-24T11:16:10.357Z,5.43
2023-02-24T11:18:39.601Z,7.55
2023-02-24T11:21:11.220Z,7.55
2023-02-24T11:23:40.701Z,8.15
2023-02-24T11:26:19.175Z,2.88
2023-02-24T11:29:04.166Z,6.78
2023-02-24T11:31:52.111Z,6.00
2023-02-24T11:34:42.799Z,7.55
2023-02-24T11:37:16.071Z,6.38
2023-02-24T11:40:02.130Z,11.63
2023-02-24T11:42:47.030Z,9.70
2023-02-24T11:45:33.647Z,10.55
2023-02-24T11:48:06.495Z,12.25
2023-02-24T11:51:02.047Z,8.38
2023-02-24T11:53:37.501Z,10.00
2023-02-24T11:56:23.167Z,10.75
2023-02-24T11:59:01.720Z,8.10
2023-02-24T12:01:50.082Z,9.93
2023-02-24T12:04:32.587Z,8.38
2023-02-24T12:07:25.268Z,6.45
2023-02-24T12:10:14.201Z,7.95
2023-02-24T12:13:11.829Z,8.13
2023-02-24T12:15:46.790Z,10.23
2023-02-24T12:18:34.932Z,9.80
2023-02-24T12:21:30.609Z,11.55
2023-02-24T12:23:59.190Z,10.00
2023-02-24T12:26:42.722Z,9.50
2023-02-24T12:29:24.490Z,12.77
2023-02-24T12:32:20.996Z,6.93
2023-02-24T12:37:49.086Z,6.75
2023-02-24T12:40:31.000Z,8.25
2023-02-24T12:43:35.057Z,8.88
2023-02-24T12:46:14.897Z,4.90
2023-02-24T12:49:01.138Z,12.88
2023-02-24T12:51:49.803Z,11.00
2023-02-24T12:54:43.322Z,5.40
2023-02-24T12:57:32.283Z,7.75
2023-02-24T13:00:09.169Z,12.15
2023-02-24T13:02:48.354Z,7.53
2023-02-24T13:05:18.838Z,9.68
2023-02-24T13:08:18.468Z,10.95
2023-02-24T13:11:05.395Z,8.63
2023-02-24T13:13:54.122Z,10.20
2023-02-24T13:16:31.761Z,11.23
2023-02-24T13:19:19.932Z,8.15
2023-02-24T13:22:26.570Z,11.10
2023-02-24T13:25:01.036Z,6.47
2023-02-24T13:27:38.988Z,10.30
2023-02-24T13:30:23.449Z,8.00
2023-02-24T13:33:05.818Z,11.35
2023-02-24T13:35:36.500Z,12.10
2023-02-24T13:38:25.085Z,14.18
2023-02-24T13:40:52.648Z,10.15
2023-02-24T13:43:26.674Z,9.60
2023-02-24T13:46:00.144Z,9.98
2023-02-24T13:48:39.458Z,10.60
2023-02-24T13:51:25.798Z,11.07
2023-02-24T13:56:31.114Z,9.27
2023-02-24T13:59:18.034Z,4.75
2023-02-24T14:01:59.886Z,6.63
2023-02-24T14:04:39.555Z,6.75
2023-02-24T14:07:12.573Z,6.25
2023-02-24T14:09:45.682Z,12.75
2023-02-24T14:12:17.078Z,10.73
2023-02-24T14:14:46.359Z,9.45
2023-02-24T14:17:29.746Z,8.85
2023-02-24T14:20:09.094Z,10.23
2023-02-24T14:22:45.193Z,12.93
2023-02-24T14:25:13.264Z,7.88
2023-02-24T14:27:45.329Z,6.55
2023-02-24T14:30:45.534Z,5.97
2023-02-24T14:33:35.222Z,6.45
2023-02-24T14:36:05.174Z,10.32
2023-02-24T14:38:41.430Z,6.75
2023-02-24T14:41:22.410Z,6.53
2023-02-24T14:43:50.795Z,9.73
2023-02-24T14:46:18.474Z,8.13
2023-02-24T14:48:52.022Z,6.95
2023-02-24T14:51:31.174Z,11.52
2023-02-24T14:54:04.760Z,5.30
2023-02-24T14:56:34.240Z,5.10
2023-02-24T14:59:12.333Z,9.20
2023-02-24T15:01:53.053Z,6.60
2023-02-24T15:04:32.626Z,5.15
2023-02-24T15:07:03.602Z,5.85
2023-02-24T15:09:42.447Z,5.97
2023-02-24T15:12:17.491Z,6.32
2023-02-24T15:15:02.002Z,19.17
2023-02-24T15:17:30.311Z,6.15
2023-02-24T15:19:57.930Z,10.15
2023-02-24T15:22:34.943Z,9.52
2023-02-24T15:25:28.148Z,11.07
2023-02-24T15:28:03.418Z,14.38
2023-02-24T15:30:36.802Z,10.70
2023-02-24T15:33:21.372Z,9.10
2023-02-24T15:35:53.861Z,8.57
2023-02-24T15:38:25.471Z,9.77
2023-02-24T15:40:59.178Z,5.25
2023-02-24T15:43:37.363Z,6.45
2023-02-24T15:46:23.265Z,6.88
2023-02-24T15:48:54.084Z,9.38
2023-02-24T15:51:27.777Z,7.50
2023-02-24T15:53:55.746Z,8.48
2023-02-24T15:56:23.518Z,14.00
2023-02-24T15:58:51.298Z,9.57
2023-02-24T16:01:20.038Z,9.32
2023-02-24T16:03:47.821Z,7.82
2023-02-24T16:06:19.917Z,5.47
2023-02-24T16:08:50.219Z,13.35
2023-02-24T16:11:22.123Z,8.43
2023-02-24T16:13:56.684Z,11.52
2023-02-24T16:16:25.874Z,9.48
2023-02-24T16:18:53.734Z,4.38
2023-02-24T16:21:21.256Z,5.63
2023-02-24T16:23:48.977Z,7.75
2023-02-24T16:26:21.078Z,14.27
2023-02-24T16:28:57.146Z,12.73
2023-02-24T16:33:55.655Z,6.22
2023-02-24T16:36:25.709Z,14.55
2023-02-24T16:38:53.658Z,15.52
2023-02-24T16:41:21.590Z,21.85
2023-02-24T16:43:49.664Z,16.52
2023-02-24T16:46:23.069Z,9.88
2023-02-24T16:48:53.518Z,10.75
2023-02-24T16:51:22.516Z,7.22
2023-02-24T16:53:50.008Z,15.00
2023-02-24T16:56:18.166Z,12.95
2023-02-24T16:58:45.842Z,8.38
2023-02-24T17:01:20.676Z,5.68
2023-02-24T17:03:51.313Z,8.43
2023-02-24T17:06:21.930Z,10.10
2023-02-24T17:08:51.159Z,14.10
2023-02-24T17:11:21.080Z,10.82
2023-02-24T17:13:48.591Z,12.98
2023-02-24T17:16:16.165Z,11.65
2023-02-24T17:18:43.704Z,5.07
2023-02-24T17:21:14.632Z,7.88
2023-02-24T17:23:45.198Z,9.02
2023-02-24T17:26:16.265Z,13.35
2023-02-24T17:28:44.270Z,11.65
2023-02-24T17:31:12.439Z,10.27
2023-02-24T17:33:41.027Z,13.57
2023-02-24T17:36:08.490Z,10.05
2023-02-24T17:38:36.056Z,11.02
2023-02-24T17:41:03.515Z,9.02
2023-02-24T17:43:31.002Z,10.70
2023-02-24T17:46:01.481Z,8.40
2023-02-24T17:48:29.093Z,10.23
2023-02-24T17:50:56.540Z,9.00
2023-02-24T17:53:24.160Z,8.02
2023-02-24T17:56:02.921Z,5.60
2023-02-24T17:58:31.552Z,6.70
2023-02-24T18:00:59.244Z,12.18
2023-02-24T18:03:26.787Z,6.43
2023-02-24T18:06:02.235Z,8.13
2023-02-24T18:08:30.688Z,10.02
2023-02-24T18:10:59.169Z,9.10
2023-02-24T18:13:28.202Z,9.20
2023-02-24T18:15:56.147Z,16.77
2023-02-24T18:18:24.701Z,4.57
2023-02-24T18:20:52.355Z,5.90
2023-02-24T18:23:19.970Z,9.70
2023-02-24T18:25:47.473Z,3.97
2023-02-24T18:28:15.098Z,8.80
2023-02-24T18:30:42.587Z,9.50
2023-02-24T18:33:10.233Z,7.00
2023-02-24T18:35:38.804Z,7.18
2023-02-24T18:38:06.636Z,13.90
2023-02-24T18:40:36.709Z,11.32
2023-02-24T18:43:04.778Z,6.07
2023-02-24T18:45:32.633Z,5.28
2023-02-24T18:48:04.956Z,9.73
2023-02-24T18:50:33.075Z,7.40
2023-02-24T18:53:00.498Z,10.23
2023-02-24T18:55:29.933Z,12.23
2023-02-24T18:57:57.555Z,12.75
2023-02-24T19:00:25.255Z,12.57
2023-02-24T19:02:52.831Z,12.32
2023-02-24T19:05:20.566Z,8.93
2023-02-24T19:07:48.080Z,7.68
2023-02-24T19:10:15.745Z,10.85
2023-02-24T19:12:43.265Z,7.22
2023-02-24T19:15:11.404Z,7.00
2023-02-24T19:17:38.879Z,7.18
2023-02-24T19:20:07.215Z,6.18
2023-02-24T19:22:34.646Z,7.72
2023-02-24T19:25:02.194Z,7.90
2023-02-24T19:27:29.729Z,12.77
2023-02-24T19:29:58.117Z,4.95
2023-02-24T19:32:25.761Z,9.10
2023-02-24T19:34:53.351Z,6.13
2023-02-24T19:37:20.809Z,12.38
2023-02-24T19:39:48.265Z,8.43
2023-02-24T19:42:15.803Z,10.25
2023-02-24T19:44:43.285Z,13.98
2023-02-24T19:47:10.825Z,13.40
2023-02-24T19:49:38.399Z,10.48
2023-02-24T19:52:05.843Z,7.95
2023-02-24T19:54:33.411Z,12.75
2023-02-24T19:57:01.012Z,8.68
2023-02-24T19:59:28.711Z,12.35
2023-02-24T20:01:56.225Z,7.88
2023-02-24T20:04:24.363Z,6.82
2023-02-24T20:06:51.918Z,9.48
2023-02-24T20:09:21.435Z,14.52
2023-02-24T20:11:50.705Z,7.82
2023-02-24T20:14:19.734Z,10.23
2023-02-24T20:16:47.979Z,9.60
2023-02-24T20:19:16.166Z,9.55
2023-02-24T20:21:44.026Z,8.35
2023-02-24T20:24:15.323Z,10.13
2023-02-24T20:26:47.156Z,13.98
2023-02-24T20:29:16.739Z,12.95
2023-02-24T20:31:44.383Z,8.95
2023-02-24T20:34:13.556Z,8.45
2023-02-24T20:36:41.604Z,7.25
2023-02-24T20:39:12.487Z,8.38
2023-02-24T20:41:40.717Z,9.75
2023-02-24T20:44:08.666Z,10.45
2023-02-24T20:46:36.543Z,11.88
2023-02-24T20:49:06.796Z,10.27
2023-02-24T20:51:37.264Z,11.65
2023-02-24T20:54:06.106Z,6.90
2023-02-24T20:56:36.543Z,13.15
2023-02-24T20:59:07.827Z,5.25
2023-02-24T21:01:35.993Z,11.70
2023-02-24T21:04:03.770Z,15.60
2023-02-24T21:06:32.285Z,5.90
2023-02-24T21:08:59.803Z,7.70
2023-02-24T21:11:29.753Z,4.55
2023-02-24T21:13:57.848Z,9.10
2023-02-24T21:16:26.885Z,9.07
2023-02-24T21:18:55.911Z,3.10
2023-02-24T21:21:23.653Z,9.95
2023-02-24T21:23:51.542Z,7.32
2023-02-24T21:26:19.973Z,9.05
2023-02-24T21:28:47.730Z,10.40
2023-02-24T21:31:18.340Z,16.75
2023-02-24T21:33:50.351Z,12.20
2023-02-24T21:36:21.128Z,9.68
2023-02-24T21:38:49.409Z,7.10
2023-02-24T21:41:19.460Z,7.18
2023-02-24T21:43:47.763Z,9.38
2023-02-24T21:46:16.011Z,7.05
2023-02-24T21:48:43.708Z,11.32
2023-02-24T21:51:13.621Z,10.73
2023-02-24T21:53:43.774Z,12.15
2023-02-24T21:56:16.689Z,8.63
2023-02-24T21:58:47.325Z,10.65
2023-02-24T22:01:24.069Z,10.57
2023-02-24T22:03:59.043Z,13.63
2023-02-24T22:06:30.255Z,8.32
2023-02-24T22:09:00.111Z,12.98
2023-02-24T22:11:29.469Z,7.22
2023-02-24T22:13:56.894Z,14.52
2023-02-24T22:16:25.892Z,11.55
2023-02-24T22:18:55.329Z,12.30
2023-02-24T22:21:27.054Z,5.70
2023-02-24T22:23:57.810Z,12.93
2023-02-24T22:26:26.997Z,8.65
2023-02-24T22:28:55.128Z,6.82
2023-02-24T22:31:25.879Z,14.30
2023-02-24T22:33:53.892Z,5.68
2023-02-24T22:36:25.269Z,8.30
2023-02-24T22:38:54.296Z,9.18
2023-02-24T22:41:24.872Z,7.75
2023-02-24T22:43:54.077Z,13.15
2023-02-24T22:46:25.820Z,10.88
2023-02-24T22:48:53.806Z,14.93
2023-02-24T22:51:21.268Z,8.93
2023-02-24T22:53:49.955Z,11.10
2023-02-24T22:56:20.722Z,8.25
2023-02-24T22:58:48.500Z,10.85
2023-02-24T23:01:19.922Z,9.40
2023-02-24T23:03:47.767Z,8.88
2023-02-24T23:06:22.066Z,8.38
2023-02-24T23:08:51.170Z,8.05
2023-02-24T23:11:27.915Z,14.73
2023-02-24T23:13:56.369Z,11.50
2023-02-24T23:16:29.499Z,6.55
2023-02-24T23:18:58.388Z,10.95
2023-02-24T23:21:34.018Z,11.35
2023-02-24T23:24:01.906Z,5.88
2023-02-24T23:26:38.394Z,11.10
2023-02-24T23:29:06.362Z,7.97
2023-02-24T23:31:34.103Z,7.07
2023-02-24T23:34:03.902Z,11.00
2023-02-24T23:36:31.386Z,12.93
2023-02-24T23:38:58.871Z,9.20
2023-02-24T23:41:26.396Z,13.30
2023-02-24T23:43:53.932Z,9.45
2023-02-24T23:46:21.752Z,10.23
2023-02-24T23:48:57.445Z,12.45
2023-02-24T23:51:26.686Z,7.38
2023-02-24T23:53:54.309Z,8.68
2023-02-24T23:56:25.331Z,9.80
2023-02-24T23:58:57.832Z,13.45
